MSC Mandraki — SZUH — position and weather

sailwx.info

Track history (hours):
 
Tides and Currents Weather Stations Pressure Air Temp Water Temp Dewpoint Dewpoint Depression Visibility Wind Speed Wind Dir Waves Ship Positions

MSC Mandraki

Last reported at 2016-Aug-28 13:31 UTC. Time now 2016-Aug-28 14:04 UTC.
Position N 51°58' E 004°04'.

Length 294 m; draft 9.7 m.

Type: Ship. MMSI: 240265000.

Date/timePositionNaut miles runAvg speedWind from/ knotsBaromVisibWave heightAir tempDewpointWater temp
2016-Aug-28 13:31N 51°58' E 004°04'0 0.0
2016-Aug-28 12:31N 51°58' E 004°04'0 0.0
2016-Aug-28 11:31N 51°58' E 004°04'0 0.0
2016-Aug-28 10:31N 51°58' E 004°04'0 0.0
2016-Aug-28 09:25N 51°58' E 004°04'0 0.0
2016-Aug-28 08:31N 51°58' E 004°04'0 0.0
2016-Aug-28 07:31N 51°58' E 004°04'0 0.0
2016-Aug-28 06:31N 51°58' E 004°04'1 0.9
2016-Aug-28 05:33N 51°58' E 004°05'8 8.3
2016-Aug-28 04:33N 51°60' E 003°52'1211.5
2016-Aug-28 03:33N 51°57' E 003°34'1717.2
2016-Aug-28 02:33N 51°54' E 003°06'1717.4
2016-Aug-28 01:33N 51°54' E 002°38'1917.8
2016-Aug-28 00:30N 51°52' E 002°08'1617.0
2016-Aug-27 23:33N 51°50' E 001°42'1211.9
2016-Aug-27 22:34N 51°56' E 001°25'5 4.7
2016-Aug-27 21:33N 51°58' E 001°18'0 0.0
2016-Aug-27 20:33N 51°58' E 001°18'0 0.0
2016-Aug-27 19:33N 51°58' E 001°18'0 0.0
2016-Aug-27 18:33N 51°58' E 001°18'0 0.0
2016-Aug-27 17:33N 51°58' E 001°18'0 0.0
2016-Aug-27 16:33N 51°58' E 001°18'0 0.0
2016-Aug-27 15:33N 51°58' E 001°18'0 0.0
2016-Aug-27 14:33N 51°58' E 001°18'0 0.0
2016-Aug-27 13:33N 51°58' E 001°18'0 0.0
2016-Aug-27 12:33N 51°58' E 001°18'0 0.0
2016-Aug-27 11:33N 51°58' E 001°18'0 0.0
2016-Aug-27 10:33N 51°58' E 001°18'0 0.0
2016-Aug-27 09:33N 51°58' E 001°18'1 0.7
2016-Aug-27 08:34N 51°57' E 001°18'9 9.3
2016-Aug-27 07:34N 51°56' E 001°33'16 5.2
2016-Aug-27 04:34N 51°43' E 001°49'1615.9
2016-Aug-27 03:34N 51°28' E 001°59'1414.1
2016-Aug-27 02:34N 51°15' E 001°53'1616.3
2016-Aug-27 01:34N 51°03' E 001°35'1616.3
2016-Aug-27 00:33N 50°48' E 001°23'1716.3
2016-Aug-26 23:32N 50°35' E 001°08'2217.4
2016-Aug-26 22:17N 50°27' E 000°36'1317.6
2016-Aug-26 21:31N 50°22' E 000°16'1717.6
2016-Aug-26 20:33N 50°18' W 000°10'1717.4
2016-Aug-26 19:34N 50°14' W 000°36'1717.4
2016-Aug-26 18:33N 50°09' W 001°02'1818.2
2016-Aug-26 17:33N 50°04' W 001°29'1919.2
2016-Aug-26 16:34N 49°59' W 001°58'2020.0
2016-Aug-26 15:33N 49°53' W 002°28'2019.7
2016-Aug-26 14:34N 49°46' W 002°56'2019.5
2016-Aug-26 13:34N 49°37' W 003°23'1919.4
2016-Aug-26 12:33N 49°27' W 003°48'2019.4
2016-Aug-26 11:32N 49°17' W 004°15'2019.5
2016-Aug-26 10:29N 49°07' W 004°42'1919.8
2016-Aug-26 09:32N 48°57' W 005°07'1919.5
2016-Aug-26 08:33N 48°47' W 005°31'1919.3
2016-Aug-26 07:34N 48°31' W 005°47'2119.2
2016-Aug-26 06:28N 48°12' W 006°02'3618.8
2016-Aug-26 04:34N 47°40' W 006°26'1818.3
2016-Aug-26 03:34N 47°24' W 006°38'1918.8
2016-Aug-26 02:34N 47°08' W 006°52'39117.6
2016-Aug-25 04:20N 40°58' W 009°49'1617.2
2016-Aug-25 03:25N 40°42' W 009°50'1517.1
2016-Aug-25 02:33N 40°27' W 009°50'1817.5
2016-Aug-25 01:31N 40°09' W 009°50'2017.8
2016-Aug-25 00:23N 39°49' W 009°50'4917.5
2016-Aug-24 21:33N 38°59' W 009°52'1817.5
2016-Aug-24 20:33N 38°42' W 009°51'1717.4
2016-Aug-24 19:33N 38°28' W 009°38'1817.6
2016-Aug-24 18:34N 38°16' W 009°21'1817.5
2016-Aug-24 17:34N 38°04' W 009°05'1514.7
2016-Aug-24 16:33N 37°55' W 008°50'1 1.1
2016-Aug-24 15:32N 37°56' W 008°51'0 0.0
2016-Aug-24 14:32N 37°56' W 008°51'0 0.0
2016-Aug-24 13:29N 37°56' W 008°51'0 0.0
2016-Aug-24 12:32N 37°56' W 008°51'0 0.0
2016-Aug-24 11:32N 37°56' W 008°51'2 1.8
2016-Aug-24 10:33N 37°54' W 008°50'8 7.7
2016-Aug-24 09:32N 37°48' W 008°55'2 2.0
2016-Aug-24 08:33N 37°46' W 008°57'0 0.2
2016-Aug-24 07:33N 37°46' W 008°56'2 2.4
2016-Aug-24 06:33N 37°44' W 008°57'3115.6
2016-Aug-24 04:33N 37°15' W 009°13'1615.8
2016-Aug-24 03:33N 37°01' W 009°20'1515.0
2016-Aug-24 02:33N 36°47' W 009°13'7015.9
2016-Aug-23 22:09N 36°24' W 007°50'1016.0
2016-Aug-23 21:33N 36°21' W 007°39'1616.2
2016-Aug-23 20:33N 36°16' W 007°20'1616.6
2016-Aug-23 19:33N 36°09' W 007°01'1717.2
2016-Aug-23 18:33N 36°04' W 006°41'1916.9
2016-Aug-23 17:27N 35°59' W 006°18'3317.0
2016-Aug-23 15:31N 35°58' W 005°38'1515.6
2016-Aug-23 14:33N 36°01' W 005°20'21016.0
2016-Aug-23 01:24N 36°28' W 001°01'3116.8
2016-Aug-22 23:32N 36°34' W 000°23'3416.9
2016-Aug-22 21:33N 36°38' E 000°18'3916.0
2016-Aug-22 19:08N 36°45' E 001°06'6216.1
2016-Aug-22 15:15N 36°57' E 002°23'36218.2
2016-Aug-21 19:19N 37°38' E 009°55'1418.1
2016-Aug-21 18:33N 37°38' E 010°12'1817.9
2016-Aug-21 17:33N 37°36' E 010°34'1817.9
2016-Aug-21 16:33N 37°30' E 010°56'2517.7
2016-Aug-21 15:10N 37°20' E 011°24'1117.5
2016-Aug-21 14:33N 37°15' E 011°36'1817.5
2016-Aug-21 13:33N 37°08' E 011°56'1817.5
2016-Aug-21 12:33N 37°01' E 012°16'1818.3
2016-Aug-21 11:33N 36°55' E 012°37'1818.3
2016-Aug-21 10:33N 36°49' E 012°59'1818.2
2016-Aug-21 09:33N 36°43' E 013°21'1818.1
2016-Aug-21 08:33N 36°38' E 013°42'1818.2
2016-Aug-21 07:33N 36°35' E 014°05'1818.4
2016-Aug-21 06:33N 36°31' E 014°27'1818.5
2016-Aug-21 05:33N 36°25' E 014°49'1918.6
2016-Aug-21 04:33N 36°22' E 015°12'1918.6
2016-Aug-21 03:33N 36°22' E 015°35'2218.6
2016-Aug-21 02:24N 36°22' E 016°02'1618.8
2016-Aug-21 01:33N 36°22' E 016°21'34317.2
2016-Aug-20 05:33N 36°43' E 023°28'1817.5
2016-Aug-20 04:33N 36°59' E 023°36'1717.4
2016-Aug-20 03:33N 37°16' E 023°41'1717.4
2016-Aug-20 02:33N 37°33' E 023°42'1817.6
2016-Aug-20 01:33N 37°50' E 023°37'7 6.9
2016-Aug-20 00:31N 37°57' E 023°35'0 0.0
2016-Aug-19 23:31N 37°57' E 023°35'0 0.0
2016-Aug-19 22:31N 37°57' E 023°35'0 0.0
2016-Aug-19 21:31N 37°57' E 023°35'0 0.0
2016-Aug-19 20:31N 37°57' E 023°35'0 0.0
2016-Aug-19 19:31N 37°57' E 023°35'0 0.0
2016-Aug-19 18:28N 37°57' E 023°35'0 0.0
2016-Aug-19 17:31N 37°57' E 023°35'0 0.0
2016-Aug-19 16:31N 37°57' E 023°35'0 0.0
2016-Aug-19 15:31N 37°57' E 023°35'0 0.0
2016-Aug-19 14:31N 37°57' E 023°35'0 0.0
2016-Aug-19 13:31N 37°57' E 023°35'0 0.0
2016-Aug-19 12:31N 37°57' E 023°35'1 0.7
2016-Aug-19 11:33N 37°57' E 023°35'3 2.9
2016-Aug-19 10:33N 37°54' E 023°36'1010.3
2016-Aug-19 09:34N 37°45' E 023°42'1616.2
2016-Aug-19 08:34N 37°34' E 023°57'1815.7
2016-Aug-19 07:25N 37°44' E 024°16'1516.9
2016-Aug-19 06:33N 37°52' E 024°31'  
Track history (hours):
 
Tides and Currents Weather Stations Pressure Air Temp Water Temp Dewpoint Dewpoint Depression Visibility Wind Speed Wind Dir Waves Ship Positions

MSC Mandraki

Last reported at 2016-Aug-28 13:31 UTC. Time now 2016-Aug-28 14:04 UTC.
Position N 51°58' E 004°04'.

Length 294 m; draft 9.7 m.

Type: Ship. MMSI: 240265000.

Date/timePositionNaut miles runAvg speedWind from/ knotsBaromVisibWave heightAir tempDewpointWater temp
2016-Aug-28 13:31N 51°58' E 004°04'0 0.0
2016-Aug-28 12:31N 51°58' E 004°04'0 0.0
2016-Aug-28 11:31N 51°58' E 004°04'0 0.0
2016-Aug-28 10:31N 51°58' E 004°04'0 0.0
2016-Aug-28 09:25N 51°58' E 004°04'0 0.0
2016-Aug-28 08:31N 51°58' E 004°04'0 0.0
2016-Aug-28 07:31N 51°58' E 004°04'0 0.0
2016-Aug-28 06:31N 51°58' E 004°04'1 0.9
2016-Aug-28 05:33N 51°58' E 004°05'8 8.3
2016-Aug-28 04:33N 51°60' E 003°52'1211.5
2016-Aug-28 03:33N 51°57' E 003°34'1717.2
2016-Aug-28 02:33N 51°54' E 003°06'1717.4
2016-Aug-28 01:33N 51°54' E 002°38'1917.8
2016-Aug-28 00:30N 51°52' E 002°08'1617.0
2016-Aug-27 23:33N 51°50' E 001°42'1211.9
2016-Aug-27 22:34N 51°56' E 001°25'5 4.7
2016-Aug-27 21:33N 51°58' E 001°18'0 0.0
2016-Aug-27 20:33N 51°58' E 001°18'0 0.0
2016-Aug-27 19:33N 51°58' E 001°18'0 0.0
2016-Aug-27 18:33N 51°58' E 001°18'0 0.0
2016-Aug-27 17:33N 51°58' E 001°18'0 0.0
2016-Aug-27 16:33N 51°58' E 001°18'0 0.0
2016-Aug-27 15:33N 51°58' E 001°18'0 0.0
2016-Aug-27 14:33N 51°58' E 001°18'0 0.0
2016-Aug-27 13:33N 51°58' E 001°18'0 0.0
2016-Aug-27 12:33N 51°58' E 001°18'0 0.0
2016-Aug-27 11:33N 51°58' E 001°18'0 0.0
2016-Aug-27 10:33N 51°58' E 001°18'0 0.0
2016-Aug-27 09:33N 51°58' E 001°18'1 0.7
2016-Aug-27 08:34N 51°57' E 001°18'9 9.3
2016-Aug-27 07:34N 51°56' E 001°33'16 5.2
2016-Aug-27 04:34N 51°43' E 001°49'1615.9
2016-Aug-27 03:34N 51°28' E 001°59'1414.1
2016-Aug-27 02:34N 51°15' E 001°53'1616.3
2016-Aug-27 01:34N 51°03' E 001°35'1616.3
2016-Aug-27 00:33N 50°48' E 001°23'1716.3
2016-Aug-26 23:32N 50°35' E 001°08'2217.4
2016-Aug-26 22:17N 50°27' E 000°36'1317.6
2016-Aug-26 21:31N 50°22' E 000°16'1717.6
2016-Aug-26 20:33N 50°18' W 000°10'1717.4
2016-Aug-26 19:34N 50°14' W 000°36'1717.4
2016-Aug-26 18:33N 50°09' W 001°02'1818.2
2016-Aug-26 17:33N 50°04' W 001°29'1919.2
2016-Aug-26 16:34N 49°59' W 001°58'2020.0
2016-Aug-26 15:33N 49°53' W 002°28'2019.7
2016-Aug-26 14:34N 49°46' W 002°56'2019.5
2016-Aug-26 13:34N 49°37' W 003°23'1919.4
2016-Aug-26 12:33N 49°27' W 003°48'2019.4
2016-Aug-26 11:32N 49°17' W 004°15'2019.5
2016-Aug-26 10:29N 49°07' W 004°42'1919.8
2016-Aug-26 09:32N 48°57' W 005°07'1919.5
2016-Aug-26 08:33N 48°47' W 005°31'1919.3
2016-Aug-26 07:34N 48°31' W 005°47'2119.2
2016-Aug-26 06:28N 48°12' W 006°02'3618.8
2016-Aug-26 04:34N 47°40' W 006°26'1818.3
2016-Aug-26 03:34N 47°24' W 006°38'1918.8
2016-Aug-26 02:34N 47°08' W 006°52'39117.6
2016-Aug-25 04:20N 40°58' W 009°49'1617.2
2016-Aug-25 03:25N 40°42' W 009°50'1517.1
2016-Aug-25 02:33N 40°27' W 009°50'1817.5
2016-Aug-25 01:31N 40°09' W 009°50'2017.8
2016-Aug-25 00:23N 39°49' W 009°50'4917.5
2016-Aug-24 21:33N 38°59' W 009°52'1817.5
2016-Aug-24 20:33N 38°42' W 009°51'1717.4
2016-Aug-24 19:33N 38°28' W 009°38'1817.6
2016-Aug-24 18:34N 38°16' W 009°21'1817.5
2016-Aug-24 17:34N 38°04' W 009°05'1514.7
2016-Aug-24 16:33N 37°55' W 008°50'1 1.1
2016-Aug-24 15:32N 37°56' W 008°51'0 0.0
2016-Aug-24 14:32N 37°56' W 008°51'0 0.0
2016-Aug-24 13:29N 37°56' W 008°51'0 0.0
2016-Aug-24 12:32N 37°56' W 008°51'0 0.0
2016-Aug-24 11:32N 37°56' W 008°51'2 1.8
2016-Aug-24 10:33N 37°54' W 008°50'8 7.7
2016-Aug-24 09:32N 37°48' W 008°55'2 2.0
2016-Aug-24 08:33N 37°46' W 008°57'0 0.2
2016-Aug-24 07:33N 37°46' W 008°56'2 2.4
2016-Aug-24 06:33N 37°44' W 008°57'3115.6
2016-Aug-24 04:33N 37°15' W 009°13'1615.8
2016-Aug-24 03:33N 37°01' W 009°20'1515.0
2016-Aug-24 02:33N 36°47' W 009°13'7015.9
2016-Aug-23 22:09N 36°24' W 007°50'1016.0
2016-Aug-23 21:33N 36°21' W 007°39'1616.2
2016-Aug-23 20:33N 36°16' W 007°20'1616.6
2016-Aug-23 19:33N 36°09' W 007°01'1717.2
2016-Aug-23 18:33N 36°04' W 006°41'1916.9
2016-Aug-23 17:27N 35°59' W 006°18'3317.0
2016-Aug-23 15:31N 35°58' W 005°38'1515.6
2016-Aug-23 14:33N 36°01' W 005°20'21016.0
2016-Aug-23 01:24N 36°28' W 001°01'3116.8
2016-Aug-22 23:32N 36°34' W 000°23'3416.9
2016-Aug-22 21:33N 36°38' E 000°18'3916.0
2016-Aug-22 19:08N 36°45' E 001°06'6216.1
2016-Aug-22 15:15N 36°57' E 002°23'36218.2
2016-Aug-21 19:19N 37°38' E 009°55'1418.1
2016-Aug-21 18:33N 37°38' E 010°12'1817.9
2016-Aug-21 17:33N 37°36' E 010°34'1817.9
2016-Aug-21 16:33N 37°30' E 010°56'2517.7
2016-Aug-21 15:10N 37°20' E 011°24'1117.5
2016-Aug-21 14:33N 37°15' E 011°36'1817.5
2016-Aug-21 13:33N 37°08' E 011°56'1817.5
2016-Aug-21 12:33N 37°01' E 012°16'1818.3
2016-Aug-21 11:33N 36°55' E 012°37'1818.3
2016-Aug-21 10:33N 36°49' E 012°59'1818.2
2016-Aug-21 09:33N 36°43' E 013°21'1818.1
2016-Aug-21 08:33N 36°38' E 013°42'1818.2
2016-Aug-21 07:33N 36°35' E 014°05'1818.4
2016-Aug-21 06:33N 36°31' E 014°27'1818.5
2016-Aug-21 05:33N 36°25' E 014°49'1918.6
2016-Aug-21 04:33N 36°22' E 015°12'1918.6
2016-Aug-21 03:33N 36°22' E 015°35'2218.6
2016-Aug-21 02:24N 36°22' E 016°02'1618.8
2016-Aug-21 01:33N 36°22' E 016°21'34317.2
2016-Aug-20 05:33N 36°43' E 023°28'1817.5
2016-Aug-20 04:33N 36°59' E 023°36'1717.4
2016-Aug-20 03:33N 37°16' E 023°41'1717.4
2016-Aug-20 02:33N 37°33' E 023°42'1817.6
2016-Aug-20 01:33N 37°50' E 023°37'7 6.9
2016-Aug-20 00:31N 37°57' E 023°35'0 0.0
2016-Aug-19 23:31N 37°57' E 023°35'0 0.0
2016-Aug-19 22:31N 37°57' E 023°35'0 0.0
2016-Aug-19 21:31N 37°57' E 023°35'0 0.0
2016-Aug-19 20:31N 37°57' E 023°35'0 0.0
2016-Aug-19 19:31N 37°57' E 023°35'0 0.0
2016-Aug-19 18:28N 37°57' E 023°35'0 0.0
2016-Aug-19 17:31N 37°57' E 023°35'0 0.0
2016-Aug-19 16:31N 37°57' E 023°35'0 0.0
2016-Aug-19 15:31N 37°57' E 023°35'0 0.0
2016-Aug-19 14:31N 37°57' E 023°35'0 0.0
2016-Aug-19 13:31N 37°57' E 023°35'0 0.0
2016-Aug-19 12:31N 37°57' E 023°35'1 0.7
2016-Aug-19 11:33N 37°57' E 023°35'3 2.9
2016-Aug-19 10:33N 37°54' E 023°36'1010.3
2016-Aug-19 09:34N 37°45' E 023°42'1616.2
2016-Aug-19 08:34N 37°34' E 023°57'1815.7
2016-Aug-19 07:25N 37°44' E 024°16'1516.9
2016-Aug-19 06:33N 37°52' E 024°31'  

Dump ship's entire track history